Accueil
METAR-TAF:

METAR-TAF

Aéroports :

Coni, Italie

Aéroport international de Coni

latitude: 44-32-47N, longitude: 007-37-20E, altitude: 386 m

Observation

Le bulletin a été fait il y a 1 heure et 9 minutes, à 07:50 UTC
Vent 4 kt de nord
Température 11°C
Humidité 94%
Pression 1007 hPa
Visibilité: 4000 m
Nuages épars à une hauteur de 500 ft
Nuages fragmentés à une hauteur de 3000 ft
brume

METAR: LIMZ 270750Z 01004KT 4000 BR SCT005 BKN030 11/10 Q1007

Heure: 10:59 (08:59 UTC)

Prévision

Le bulletin a été fait il y a 3 heures et 59 minutes, à 05:00 UTC
Prévision valable du 27 à 06 UTC au 28 à 06 UTC
Vent 6 kt de nord-est
Visibilité: 4000 m
Nuages fragmentés à une hauteur de 1000 ft
Nuages fragmentés à une hauteur de 3000 ft
pluie
Temporairement
du 27 à 18 UTC au 28 à 03 UTC
orage, pluie

TAF: LIMZ 270500Z 2706/2806 04006KT 4000 RA BKN010 BKN030 TEMPO 2718/2803 TSRA

Observations et prévisions météorologiques de plus de 4000 aéroports (messages METAR et TAF).

Les stations disponibles sont représentées par des disques jaunes et rouges sur la carte.

Passer la souris dessus pour voir le nom de la station.

Cliquer dessus pour voir les observations et prévisions météorologiques.

Pour changer de carte: cliquez sur les boutons verts avec une croix noire pour zoomer, sur le bouton vert avec un tiret pour effectuer un zoom arrière, ou sur les flèches vertes pour les cartes adjacentes.


METAR-TAF: